createdAt,value
2022-11-03T00:02:12.081Z,2.88
2022-11-03T00:04:39.465Z,2.72
2022-11-03T00:07:09.017Z,2.78
2022-11-03T00:09:36.432Z,2.85
2022-11-03T00:12:08.239Z,2.65
2022-11-03T00:14:35.470Z,2.60
2022-11-03T00:17:02.545Z,2.45
2022-11-03T00:19:29.793Z,2.80
2022-11-03T00:21:59.479Z,2.97
2022-11-03T00:24:26.618Z,2.90
2022-11-03T00:26:53.733Z,2.45
2022-11-03T00:29:21.706Z,2.85
2022-11-03T00:31:48.935Z,2.95
2022-11-03T00:34:16.150Z,2.58
2022-11-03T00:36:44.943Z,3.15
2022-11-03T00:39:14.841Z,2.75
2022-11-03T00:41:42.207Z,3.17
2022-11-03T00:44:10.790Z,2.88
2022-11-03T00:46:40.310Z,2.80
2022-11-03T00:49:07.515Z,2.50
2022-11-03T00:51:37.720Z,2.65
2022-11-03T00:56:44.337Z,2.72
2022-11-03T00:59:11.526Z,2.55
2022-11-03T01:01:46.553Z,2.42
2022-11-03T01:04:43.658Z,2.95
2022-11-03T01:07:10.752Z,2.90
2022-11-03T01:09:41.096Z,2.70
2022-11-03T01:12:18.523Z,3.03
2022-11-03T01:14:54.004Z,2.50
2022-11-03T01:17:28.318Z,3.13
2022-11-03T01:19:56.337Z,2.33
2022-11-03T01:22:24.516Z,3.10
2022-11-03T01:24:54.157Z,3.20
2022-11-03T01:27:23.200Z,3.80
2022-11-03T01:29:53.214Z,3.72
2022-11-03T01:32:20.362Z,3.13
2022-11-03T01:34:47.559Z,2.58
2022-11-03T01:37:16.900Z,2.95
2022-11-03T01:39:44.154Z,2.95
2022-11-03T01:42:14.624Z,3.20
2022-11-03T01:44:48.629Z,3.05
2022-11-03T01:47:31.567Z,2.90
2022-11-03T01:50:20.135Z,3.10
2022-11-03T01:52:58.747Z,3.03
2022-11-03T01:55:32.547Z,2.97
2022-11-03T01:58:19.721Z,3.58
2022-11-03T02:00:56.490Z,3.05
2022-11-03T02:03:24.416Z,3.22
2022-11-03T02:05:53.504Z,3.15
2022-11-03T02:08:34.409Z,3.05
2022-11-03T02:11:27.081Z,3.25
2022-11-03T02:16:23.488Z,3.30
2022-11-03T02:18:51.767Z,2.95
2022-11-03T02:21:35.927Z,3.03
2022-11-03T02:24:30.517Z,2.67
2022-11-03T02:26:57.791Z,2.97
2022-11-03T02:29:27.448Z,2.78
2022-11-03T02:32:26.874Z,3.38
2022-11-03T02:35:15.264Z,2.90
2022-11-03T02:37:48.492Z,3.70
2022-11-03T02:40:34.931Z,3.60
2022-11-03T02:43:04.192Z,3.72
2022-11-03T02:45:32.283Z,3.63
2022-11-03T02:48:01.991Z,3.25
2022-11-03T02:50:32.524Z,4.10
2022-11-03T02:53:00.289Z,3.90
2022-11-03T02:55:45.642Z,4.15
2022-11-03T02:58:21.733Z,4.47
2022-11-03T03:01:15.190Z,4.05
2022-11-03T03:03:58.164Z,3.90
2022-11-03T03:06:43.605Z,4.03
2022-11-03T03:09:20.729Z,3.47
2022-11-03T03:11:51.635Z,3.83
2022-11-03T03:14:37.386Z,4.68
2022-11-03T03:17:18.785Z,4.65
2022-11-03T03:19:59.259Z,4.32
2022-11-03T03:22:44.006Z,4.63
2022-11-03T03:25:30.557Z,3.70
2022-11-03T03:28:15.956Z,5.00
2022-11-03T03:30:48.538Z,5.68
2022-11-03T03:33:17.975Z,4.55
2022-11-03T03:35:48.400Z,4.70
2022-11-03T03:38:30.773Z,4.28
2022-11-03T03:43:29.109Z,5.15
2022-11-03T03:46:04.210Z,4.07
2022-11-03T03:48:31.408Z,4.15
2022-11-03T03:51:00.403Z,4.28
2022-11-03T03:53:30.411Z,3.55
2022-11-03T03:55:58.985Z,4.43
2022-11-03T03:58:26.263Z,4.10
2022-11-03T04:00:54.504Z,4.00
2022-11-03T04:03:25.465Z,4.88
2022-11-03T04:05:54.457Z,4.60
2022-11-03T04:08:21.774Z,4.68
2022-11-03T04:11:09.528Z,4.38
2022-11-03T04:13:55.459Z,5.10
2022-11-03T04:16:41.291Z,4.88
2022-11-03T04:19:32.644Z,4.35
2022-11-03T04:22:18.277Z,4.38
2022-11-03T04:24:55.457Z,4.53
2022-11-03T04:27:31.315Z,4.63
2022-11-03T04:30:10.082Z,5.18
2022-11-03T04:32:38.098Z,4.32
2022-11-03T04:35:27.975Z,4.28
2022-11-03T04:38:03.691Z,4.88
2022-11-03T04:40:31.144Z,4.88
2022-11-03T04:42:58.419Z,5.05
2022-11-03T04:45:34.198Z,4.75
2022-11-03T04:48:14.656Z,5.07
2022-11-03T04:50:46.760Z,5.88
2022-11-03T04:53:18.320Z,4.82
2022-11-03T04:55:48.392Z,5.40
2022-11-03T04:58:28.714Z,5.63
2022-11-03T05:00:59.979Z,6.07
2022-11-03T05:03:36.318Z,5.60
2022-11-03T05:06:28.967Z,4.75
2022-11-03T05:09:07.890Z,4.95
2022-11-03T05:11:37.583Z,5.00
2022-11-03T05:14:21.944Z,5.35
2022-11-03T05:16:51.963Z,4.32
2022-11-03T05:19:26.300Z,4.65
2022-11-03T05:21:56.460Z,5.18
2022-11-03T05:24:27.823Z,5.00
2022-11-03T05:26:58.248Z,5.37
2022-11-03T05:29:26.898Z,5.38
2022-11-03T05:31:57.203Z,5.32
2022-11-03T05:34:38.787Z,5.45
2022-11-03T05:37:34.694Z,5.47
2022-11-03T05:40:15.479Z,5.88
2022-11-03T05:42:47.222Z,5.95
2022-11-03T05:45:31.095Z,7.03
2022-11-03T05:48:01.522Z,7.95
2022-11-03T05:50:35.223Z,10.75
2022-11-03T05:53:29.944Z,8.95
2022-11-03T05:56:02.296Z,9.43
2022-11-03T05:58:43.168Z,10.07
2022-11-03T06:01:31.436Z,10.02
2022-11-03T06:04:26.883Z,10.32
2022-11-03T06:07:23.648Z,10.02
2022-11-03T06:09:52.472Z,11.85
2022-11-03T06:12:24.726Z,10.23
2022-11-03T06:17:29.650Z,10.63
2022-11-03T06:19:59.855Z,12.35
2022-11-03T06:22:36.137Z,14.35
2022-11-03T06:25:25.287Z,14.57
2022-11-03T06:27:53.480Z,16.42
2022-11-03T06:30:36.128Z,16.40
2022-11-03T06:33:25.760Z,16.95
2022-11-03T06:35:59.582Z,14.13
2022-11-03T06:38:31.778Z,13.68
2022-11-03T06:40:59.688Z,12.80
2022-11-03T06:43:39.696Z,11.63
2022-11-03T06:46:19.172Z,13.27
2022-11-03T06:48:46.610Z,10.32
2022-11-03T06:51:29.236Z,12.00
2022-11-03T06:54:00.439Z,13.00
2022-11-03T06:56:37.068Z,12.60
2022-11-03T06:59:09.236Z,12.65
2022-11-03T07:01:39.109Z,13.50
2022-11-03T07:04:17.123Z,13.40
2022-11-03T07:06:49.110Z,14.70
2022-11-03T07:09:28.129Z,15.38
2022-11-03T07:12:02.228Z,17.75
2022-11-03T07:14:33.320Z,15.85
2022-11-03T07:17:07.402Z,17.40
2022-11-03T07:19:42.024Z,17.52
2022-11-03T07:22:25.742Z,15.20
2022-11-03T07:25:00.543Z,14.30
2022-11-03T07:27:34.526Z,14.82
2022-11-03T07:30:19.158Z,15.20
2022-11-03T07:32:53.112Z,13.93
2022-11-03T07:36:00.403Z,14.30
2022-11-03T07:38:26.736Z,12.93
2022-11-03T07:40:56.696Z,10.15
2022-11-03T07:43:35.884Z,9.88
2022-11-03T07:46:05.937Z,10.57
2022-11-03T07:48:46.617Z,11.68
2022-11-03T07:51:22.729Z,10.48
2022-11-03T07:54:03.468Z,10.85
2022-11-03T07:56:42.916Z,10.43
2022-11-03T07:59:11.464Z,10.10
2022-11-03T08:01:50.275Z,9.50
2022-11-03T08:04:25.699Z,10.65
2022-11-03T08:06:53.278Z,12.43
2022-11-03T08:09:21.439Z,12.45
2022-11-03T08:11:50.182Z,9.90
2022-11-03T08:14:17.876Z,9.07
2022-11-03T08:16:45.301Z,9.77
2022-11-03T08:19:12.792Z,9.65
2022-11-03T08:21:39.948Z,8.70
2022-11-03T08:24:07.281Z,7.82
2022-11-03T08:26:34.372Z,7.28
2022-11-03T08:29:03.967Z,7.65
2022-11-03T08:31:31.277Z,6.80
2022-11-03T08:33:58.615Z,7.07
2022-11-03T08:36:25.933Z,6.72
2022-11-03T08:38:53.021Z,6.75
2022-11-03T08:41:20.333Z,6.93
2022-11-03T08:43:47.558Z,7.30
2022-11-03T08:46:17.813Z,7.47
2022-11-03T08:48:46.411Z,6.70
2022-11-03T08:51:15.515Z,8.00
2022-11-03T08:53:46.549Z,7.75
2022-11-03T08:56:15.039Z,8.87
2022-11-03T08:58:44.394Z,7.50
2022-11-03T09:01:11.957Z,7.70
2022-11-03T09:03:40.458Z,6.25
2022-11-03T09:06:09.986Z,6.95
2022-11-03T09:11:24.453Z,5.25
2022-11-03T09:13:51.782Z,5.30
2022-11-03T09:16:19.033Z,5.53
2022-11-03T09:18:46.448Z,5.50
2022-11-03T09:21:14.966Z,4.90
2022-11-03T09:23:42.484Z,4.13
2022-11-03T09:26:09.859Z,4.78
2022-11-03T09:28:37.080Z,4.25
2022-11-03T09:31:04.455Z,4.22
2022-11-03T09:33:31.709Z,3.92
2022-11-03T09:35:59.019Z,5.18
2022-11-03T09:38:26.297Z,4.75
2022-11-03T09:40:54.668Z,4.28
2022-11-03T09:43:22.349Z,4.88
2022-11-03T09:45:49.597Z,5.28
2022-11-03T09:48:16.907Z,4.93
2022-11-03T09:50:44.200Z,5.47
2022-11-03T09:53:13.097Z,4.10
2022-11-03T09:55:40.685Z,3.72
2022-11-03T09:58:16.416Z,4.35
2022-11-03T10:00:44.800Z,3.75
2022-11-03T10:03:18.139Z,4.20
2022-11-03T10:05:47.223Z,3.78
2022-11-03T10:08:30.992Z,3.88
2022-11-03T10:11:02.159Z,3.83
2022-11-03T10:13:43.844Z,3.75
2022-11-03T10:16:17.414Z,3.50
2022-11-03T10:18:44.957Z,4.13
2022-11-03T10:21:29.690Z,2.80
2022-11-03T10:23:56.845Z,3.40
2022-11-03T10:26:26.389Z,3.25
2022-11-03T10:29:05.072Z,3.00
2022-11-03T10:31:41.768Z,3.22
2022-11-03T10:34:39.441Z,3.42
2022-11-03T10:37:23.603Z,3.42
2022-11-03T10:39:56.800Z,2.70
2022-11-03T10:42:35.357Z,2.75
2022-11-03T10:45:19.276Z,2.45
2022-11-03T10:48:07.089Z,2.05
2022-11-03T10:50:34.320Z,1.95
2022-11-03T10:53:01.897Z,2.58
2022-11-03T10:55:29.387Z,2.30
2022-11-03T10:57:58.310Z,2.40
2022-11-03T11:00:26.196Z,2.67
2022-11-03T11:03:00.263Z,3.00
2022-11-03T11:05:30.087Z,2.67
2022-11-03T11:07:59.308Z,2.35
2022-11-03T11:10:30.084Z,2.55
2022-11-03T11:13:18.760Z,2.58
2022-11-03T11:15:51.273Z,2.95
2022-11-03T11:18:30.736Z,3.08
2022-11-03T11:21:22.471Z,2.33
2022-11-03T11:23:52.686Z,2.33
2022-11-03T11:26:25.935Z,2.95
2022-11-03T11:29:11.776Z,2.25
2022-11-03T11:31:46.351Z,2.40
2022-11-03T11:34:17.471Z,2.35
2022-11-03T11:37:10.967Z,1.88
2022-11-03T11:39:44.384Z,1.92
2022-11-03T11:42:17.836Z,2.13
2022-11-03T11:44:54.856Z,2.80
2022-11-03T11:47:50.167Z,2.33
2022-11-03T11:50:28.166Z,2.45
2022-11-03T11:53:28.987Z,2.42
2022-11-03T11:56:08.402Z,2.67
2022-11-03T11:58:50.418Z,2.33
2022-11-03T12:04:05.920Z,2.60
2022-11-03T12:06:40.759Z,2.97
2022-11-03T12:09:20.477Z,2.40
2022-11-03T12:12:07.162Z,2.33
2022-11-03T12:14:38.774Z,1.92
2022-11-03T12:17:17.952Z,2.10
2022-11-03T12:19:55.424Z,2.85
2022-11-03T12:22:26.416Z,2.50
2022-11-03T12:25:00.894Z,2.90
2022-11-03T12:27:28.061Z,2.67
2022-11-03T12:30:01.005Z,2.70
2022-11-03T12:32:36.007Z,2.38
2022-11-03T12:35:09.485Z,2.53
2022-11-03T12:37:38.078Z,3.00
2022-11-03T12:40:06.512Z,3.38
2022-11-03T12:42:33.606Z,3.00
2022-11-03T12:45:01.289Z,3.50
2022-11-03T12:47:28.403Z,3.78
2022-11-03T12:49:55.598Z,3.70
2022-11-03T12:52:22.639Z,2.50
2022-11-03T12:54:49.773Z,2.25
2022-11-03T12:57:17.116Z,2.60
2022-11-03T12:59:44.305Z,3.00
2022-11-03T13:02:14.190Z,2.10
2022-11-03T13:04:41.425Z,3.00
2022-11-03T13:07:08.915Z,2.80
2022-11-03T13:09:36.116Z,3.78
2022-11-03T13:12:22.261Z,3.08
2022-11-03T13:14:51.853Z,2.40
2022-11-03T13:17:18.945Z,2.83
2022-11-03T13:19:46.102Z,2.17
2022-11-03T13:22:13.139Z,1.95
2022-11-03T13:24:40.390Z,2.75
2022-11-03T13:27:07.565Z,2.13
2022-11-03T13:29:35.939Z,3.03
2022-11-03T13:32:06.224Z,1.90
2022-11-03T13:34:33.632Z,2.03
2022-11-03T13:37:00.864Z,2.42
2022-11-03T13:39:27.921Z,3.70
2022-11-03T13:41:55.056Z,2.67
2022-11-03T13:44:22.096Z,2.85
2022-11-03T13:46:49.435Z,3.55
2022-11-03T13:49:52.519Z,3.13
2022-11-03T13:52:05.940Z,2.83
2022-11-03T14:00:13.948Z,2.65
2022-11-03T14:05:30.835Z,3.70
2022-11-03T14:07:57.982Z,4.55
2022-11-03T14:10:25.128Z,3.33
2022-11-03T14:12:52.296Z,2.67
2022-11-03T14:15:21.982Z,2.55
2022-11-03T14:17:49.291Z,3.40
2022-11-03T14:20:16.464Z,2.97
2022-11-03T14:22:46.213Z,3.25
2022-11-03T14:25:13.305Z,4.18
2022-11-03T14:27:40.436Z,4.43
2022-11-03T14:30:08.425Z,6.13
2022-11-03T14:32:35.575Z,8.85
2022-11-03T14:35:03.052Z,8.32
2022-11-03T14:37:30.235Z,4.60
2022-11-03T14:39:57.366Z,7.97
2022-11-03T14:42:24.457Z,4.90
2022-11-03T14:47:23.559Z,5.72
2022-11-03T14:49:50.646Z,4.45
2022-11-03T14:52:18.379Z,4.10
2022-11-03T14:54:45.668Z,4.60
2022-11-03T14:57:12.792Z,4.88
2022-11-03T14:59:39.937Z,4.80
2022-11-03T15:02:07.448Z,6.82
2022-11-03T15:04:34.796Z,9.27
2022-11-03T15:07:01.927Z,9.63
2022-11-03T15:09:29.247Z,8.70
2022-11-03T15:11:56.359Z,7.43
2022-11-03T15:14:23.716Z,7.07
2022-11-03T15:16:53.075Z,7.22
2022-11-03T15:19:20.209Z,7.78
2022-11-03T15:21:47.291Z,12.45
2022-11-03T15:27:01.402Z,9.43
2022-11-03T15:29:28.621Z,10.63
2022-11-03T15:31:55.788Z,8.98
2022-11-03T15:34:22.921Z,11.88
2022-11-03T15:36:50.100Z,15.63
2022-11-03T15:39:18.027Z,22.35
2022-11-03T15:41:45.101Z,23.95
2022-11-03T15:44:12.146Z,24.40
2022-11-03T15:46:39.280Z,22.90
2022-11-03T15:49:06.375Z,14.07
2022-11-03T15:51:35.663Z,26.77
2022-11-03T15:54:02.832Z,9.63
2022-11-03T15:56:33.303Z,11.73
2022-11-03T15:59:00.424Z,19.00
2022-11-03T16:01:32.199Z,17.45
2022-11-03T16:03:59.944Z,12.70
2022-11-03T16:06:53.821Z,12.70
2022-11-03T16:09:14.387Z,10.48
2022-11-03T16:11:41.494Z,10.10
2022-11-03T16:14:08.625Z,10.60
2022-11-03T16:16:35.715Z,12.50
2022-11-03T16:19:02.797Z,9.10
2022-11-03T16:21:29.991Z,10.07
2022-11-03T16:23:57.128Z,7.47
2022-11-03T16:26:26.562Z,7.45
2022-11-03T16:28:53.654Z,8.07
2022-11-03T16:31:20.718Z,7.93
2022-11-03T16:33:47.827Z,7.72
2022-11-03T16:36:17.440Z,8.55
2022-11-03T16:38:46.845Z,6.53
2022-11-03T16:41:14.040Z,6.35
2022-11-03T16:43:41.111Z,5.82
2022-11-03T16:46:08.211Z,6.70
2022-11-03T16:48:35.242Z,6.95
2022-11-03T16:51:02.329Z,7.07
2022-11-03T16:53:29.341Z,7.00
2022-11-03T16:55:56.469Z,6.25
2022-11-03T16:58:23.650Z,6.70
2022-11-03T17:00:50.900Z,6.78
2022-11-03T17:03:18.009Z,6.75
2022-11-03T17:05:45.145Z,6.57
2022-11-03T17:08:31.976Z,5.88
2022-11-03T17:10:59.491Z,6.72
2022-11-03T17:13:26.685Z,7.95
2022-11-03T17:15:53.833Z,10.48
2022-11-03T17:18:20.996Z,9.30
2022-11-03T17:20:48.152Z,13.40
2022-11-03T17:23:15.333Z,13.35
2022-11-03T17:25:42.553Z,11.25
2022-11-03T17:28:11.865Z,14.82
2022-11-03T17:30:40.231Z,10.85
2022-11-03T17:33:17.082Z,12.70
2022-11-03T17:35:46.454Z,9.77
2022-11-03T17:38:17.753Z,8.68
2022-11-03T17:40:48.685Z,8.40
2022-11-03T17:43:27.728Z,8.85
2022-11-03T17:45:55.172Z,9.35
2022-11-03T17:48:24.402Z,9.35
2022-11-03T17:50:55.529Z,8.63
2022-11-03T17:53:26.931Z,9.20
2022-11-03T17:58:46.495Z,9.95
2022-11-03T18:01:22.655Z,10.43
2022-11-03T18:03:49.982Z,9.45
2022-11-03T18:06:19.689Z,8.85
2022-11-03T18:08:48.622Z,10.15
2022-11-03T18:11:43.945Z,9.68
2022-11-03T18:14:11.351Z,10.20
2022-11-03T18:16:38.488Z,10.98
2022-11-03T18:19:06.211Z,9.88
2022-11-03T18:21:33.285Z,11.18
2022-11-03T18:24:00.348Z,9.60
2022-11-03T18:26:29.210Z,9.27
2022-11-03T18:28:56.329Z,10.38
2022-11-03T18:31:43.867Z,14.10
2022-11-03T18:34:21.162Z,9.63
2022-11-03T18:36:48.616Z,12.00
2022-11-03T18:39:24.340Z,10.57
2022-11-03T18:41:51.520Z,10.07
2022-11-03T18:44:31.137Z,9.75
2022-11-03T18:46:58.938Z,9.18
2022-11-03T18:49:30.276Z,12.70
2022-11-03T18:52:04.965Z,16.83
2022-11-03T18:54:34.700Z,12.93
2022-11-03T18:57:02.840Z,11.25
2022-11-03T18:59:43.699Z,9.18
2022-11-03T19:02:28.320Z,13.75
2022-11-03T19:04:55.601Z,13.20
2022-11-03T19:07:30.512Z,10.43
2022-11-03T19:10:00.860Z,9.57
2022-11-03T19:12:28.245Z,10.75
2022-11-03T19:14:55.517Z,11.15
2022-11-03T19:17:25.546Z,13.73
2022-11-03T19:19:53.864Z,15.55
2022-11-03T19:22:23.308Z,13.65
2022-11-03T19:24:50.399Z,14.02
2022-11-03T19:27:30.908Z,13.77
2022-11-03T19:30:04.482Z,14.10
2022-11-03T19:32:37.802Z,15.50
2022-11-03T19:35:21.532Z,16.02
2022-11-03T19:37:52.763Z,14.48
2022-11-03T19:40:20.667Z,14.18
2022-11-03T19:42:48.891Z,14.13
2022-11-03T19:45:21.087Z,15.65
2022-11-03T19:48:23.086Z,17.58
2022-11-03T19:50:49.212Z,14.88
2022-11-03T19:53:23.747Z,15.35
2022-11-03T19:55:54.078Z,15.35
2022-11-03T19:58:29.487Z,15.35
2022-11-03T20:00:57.408Z,15.80
2022-11-03T20:03:25.402Z,15.30
2022-11-03T20:05:56.691Z,14.70
2022-11-03T20:08:27.361Z,15.57
2022-11-03T20:10:54.954Z,15.45
2022-11-03T20:13:25.420Z,15.35
2022-11-03T20:15:58.923Z,16.48
2022-11-03T20:18:29.846Z,15.18
2022-11-03T20:20:58.191Z,15.25
2022-11-03T20:23:52.573Z,14.93
2022-11-03T20:26:22.984Z,11.93
2022-11-03T20:28:51.367Z,17.77
2022-11-03T20:31:19.012Z,17.00
2022-11-03T20:33:46.251Z,12.70
2022-11-03T20:36:19.702Z,13.50
2022-11-03T20:38:59.602Z,12.07
2022-11-03T20:41:29.259Z,11.35
2022-11-03T20:43:57.095Z,11.70
2022-11-03T20:46:33.666Z,12.35
2022-11-03T20:49:01.129Z,10.85
2022-11-03T20:51:40.824Z,12.02
2022-11-03T20:54:20.952Z,12.70
2022-11-03T20:56:48.522Z,12.43
2022-11-03T20:59:24.658Z,12.10
2022-11-03T21:01:53.200Z,13.07
2022-11-03T21:04:21.193Z,12.93
2022-11-03T21:06:50.935Z,14.50
2022-11-03T21:09:20.199Z,14.63
2022-11-03T21:11:48.064Z,14.15
2022-11-03T21:14:22.379Z,13.52
2022-11-03T21:17:07.979Z,13.70
2022-11-03T21:19:53.973Z,14.02
2022-11-03T21:22:52.561Z,14.00
2022-11-03T21:25:22.416Z,13.45
2022-11-03T21:27:49.792Z,13.88
2022-11-03T21:30:18.447Z,12.95
2022-11-03T21:32:46.154Z,12.30
2022-11-03T21:35:20.516Z,11.70
2022-11-03T21:37:48.139Z,12.77
2022-11-03T21:40:16.314Z,11.57
2022-11-03T21:43:01.914Z,12.20
2022-11-03T21:45:29.123Z,12.27
2022-11-03T21:48:15.368Z,11.18
2022-11-03T21:50:43.448Z,12.52
2022-11-03T21:53:12.060Z,11.68
2022-11-03T21:55:40.230Z,11.93
2022-11-03T21:58:07.895Z,11.32
2022-11-03T22:00:35.197Z,11.32
2022-11-03T22:03:04.871Z,12.32
2022-11-03T22:05:34.675Z,12.60
2022-11-03T22:08:01.769Z,11.13
2022-11-03T22:10:31.374Z,10.80
2022-11-03T22:12:58.485Z,11.55
2022-11-03T22:15:44.864Z,15.80
2022-11-03T22:18:12.571Z,12.82
2022-11-03T22:20:58.777Z,12.35
2022-11-03T22:23:44.696Z,10.70
2022-11-03T22:26:33.683Z,13.68
2022-11-03T22:29:19.643Z,10.80
2022-11-03T22:31:49.233Z,9.82
2022-11-03T22:34:35.074Z,10.05
2022-11-03T22:37:02.122Z,9.68
2022-11-03T22:39:47.915Z,10.13
2022-11-03T22:42:33.975Z,12.02
2022-11-03T22:45:20.148Z,10.80
2022-11-03T22:47:47.280Z,10.30
2022-11-03T22:50:14.420Z,9.68
2022-11-03T22:52:41.553Z,9.50
2022-11-03T22:55:08.765Z,9.50
2022-11-03T22:57:38.108Z,10.05
2022-11-03T23:00:05.883Z,9.85
2022-11-03T23:02:33.106Z,10.50
2022-11-03T23:05:00.348Z,9.93
2022-11-03T23:07:32.247Z,9.63
2022-11-03T23:10:04.884Z,9.63
2022-11-03T23:12:32.503Z,10.15
2022-11-03T23:15:18.408Z,9.88
2022-11-03T23:18:04.182Z,9.20
2022-11-03T23:20:49.984Z,10.07
2022-11-03T23:23:36.990Z,8.88
2022-11-03T23:26:04.267Z,8.80
2022-11-03T23:28:31.598Z,9.27
2022-11-03T23:30:58.696Z,9.52
2022-11-03T23:33:25.894Z,9.82
2022-11-03T23:35:53.308Z,8.43
2022-11-03T23:38:20.369Z,8.38
2022-11-03T23:40:47.481Z,8.75
2022-11-03T23:43:14.569Z,9.10
2022-11-03T23:46:00.441Z,9.25
2022-11-03T23:48:45.948Z,9.10
2022-11-03T23:51:34.769Z,10.27
2022-11-03T23:54:04.211Z,9.68
2022-11-03T23:56:59.840Z,8.82
2022-11-03T23:59:28.630Z,8.70
